createdAt,value
2018-07-14T00:00:44.181Z,37.59
2018-07-14T00:10:51.550Z,38.04
2018-07-14T00:20:57.074Z,38.86
2018-07-14T00:31:05.297Z,39.21
2018-07-14T00:41:10.934Z,38.59
2018-07-14T00:51:13.938Z,38.64
2018-07-14T01:01:16.983Z,37.75
2018-07-14T01:11:21.214Z,38.37
2018-07-14T01:21:25.946Z,37.74
2018-07-14T01:31:29.061Z,39.15
2018-07-14T01:41:33.447Z,39.95
2018-07-14T01:51:38.463Z,39.59
2018-07-14T02:01:43.116Z,40.04
2018-07-14T02:11:48.041Z,39.98
2018-07-14T02:21:52.284Z,39.76
2018-07-14T02:31:58.191Z,40.40
2018-07-14T02:42:04.162Z,40.13
2018-07-14T02:52:14.488Z,40.38
2018-07-14T03:02:18.229Z,39.35
2018-07-14T03:12:24.449Z,39.42
2018-07-14T03:22:36.042Z,40.00
2018-07-14T03:32:39.077Z,40.86
2018-07-14T03:42:43.126Z,39.96
2018-07-14T03:52:47.204Z,40.37
2018-07-14T04:02:58.209Z,40.47
2018-07-14T04:13:03.144Z,40.36
2018-07-14T04:23:07.286Z,41.77
2018-07-14T04:33:12.193Z,40.49
2018-07-14T04:43:16.675Z,41.38
2018-07-14T04:53:21.192Z,41.04
2018-07-14T05:03:25.718Z,40.69
2018-07-14T05:13:30.280Z,40.12
2018-07-14T05:23:34.277Z,39.14
2018-07-14T05:33:38.429Z,38.37
2018-07-14T05:43:43.279Z,39.15
2018-07-14T05:53:50.343Z,38.15
2018-07-14T06:04:02.102Z,39.41
2018-07-14T06:14:05.259Z,39.37
2018-07-14T06:24:11.695Z,37.29
2018-07-14T06:34:17.875Z,38.45
2018-07-14T06:44:28.566Z,39.98
2018-07-14T06:54:37.581Z,38.48
2018-07-14T07:04:48.296Z,40.65
2018-07-14T07:14:55.194Z,39.66
2018-07-14T07:25:00.215Z,37.75
2018-07-14T07:35:04.923Z,39.32
2018-07-14T07:45:39.802Z,40.99
2018-07-14T07:55:44.291Z,38.56
2018-07-14T08:05:48.318Z,39.60
2018-07-14T08:15:52.305Z,39.10
2018-07-14T08:25:59.707Z,37.98
2018-07-14T08:36:04.470Z,39.36
2018-07-14T08:46:10.322Z,40.33
2018-07-14T08:56:14.456Z,39.81
2018-07-14T09:06:19.583Z,38.52
2018-07-14T09:16:25.430Z,39.52
2018-07-14T09:26:29.537Z,38.27
2018-07-14T09:36:36.351Z,40.28
2018-07-14T09:46:42.301Z,39.08
2018-07-14T09:56:45.429Z,38.21
2018-07-14T10:06:49.659Z,38.01
2018-07-14T10:16:55.421Z,37.85
2018-07-14T10:27:00.595Z,37.96
2018-07-14T10:37:05.512Z,36.56
2018-07-14T10:47:10.524Z,36.31
2018-07-14T10:57:14.576Z,35.42
2018-07-14T11:07:20.858Z,33.67
2018-07-14T11:17:25.512Z,34.62
2018-07-14T11:27:30.014Z,32.56
2018-07-14T11:37:35.397Z,32.75
2018-07-14T11:47:38.457Z,32.75
2018-07-14T11:57:42.659Z,32.41
2018-07-14T12:07:50.582Z,31.34
2018-07-14T12:17:56.951Z,31.89
2018-07-14T12:28:01.663Z,31.15
2018-07-14T12:38:08.450Z,30.83
2018-07-14T12:48:11.470Z,31.03
2018-07-14T12:58:14.576Z,31.11
2018-07-14T13:08:29.709Z,32.44
2018-07-14T13:18:35.559Z,30.16
2018-07-14T13:28:39.658Z,28.96
2018-07-14T13:38:51.265Z,29.40
2018-07-14T13:48:53.127Z,30.17
2018-07-14T13:58:59.499Z,29.24
2018-07-14T14:09:04.627Z,28.21
2018-07-14T14:19:09.800Z,28.69
2018-07-14T14:29:13.669Z,30.96
2018-07-14T14:39:21.679Z,29.16
2018-07-14T14:49:25.598Z,28.97
2018-07-14T14:59:29.549Z,28.96
2018-07-14T15:09:34.705Z,27.59
2018-07-14T15:19:39.600Z,28.14
2018-07-14T15:29:43.894Z,26.96
2018-07-14T15:39:49.785Z,26.93
2018-07-14T15:49:54.587Z,27.26
2018-07-14T16:00:00.201Z,26.74
2018-07-14T16:10:07.566Z,26.74
2018-07-14T16:20:17.820Z,25.58
2018-07-14T16:30:21.082Z,27.67
2018-07-14T16:40:24.707Z,26.02
2018-07-14T16:50:27.723Z,27.92
2018-07-14T17:07:29.698Z,27.73
2018-07-14T17:17:43.758Z,27.72
2018-07-14T17:27:47.490Z,27.71
2018-07-14T17:37:51.766Z,27.40
2018-07-14T17:47:55.924Z,28.42
2018-07-14T17:58:06.742Z,27.54
2018-07-14T18:08:09.765Z,28.17
2018-07-14T18:18:12.950Z,28.67
2018-07-14T18:28:16.020Z,28.10
2018-07-14T18:38:19.126Z,28.57
2018-07-14T18:48:22.278Z,27.87
2018-07-14T18:58:25.448Z,30.12
2018-07-14T19:08:28.550Z,29.27
2018-07-14T19:18:31.530Z,28.84
2018-07-14T19:28:34.539Z,29.57
2018-07-14T19:38:37.574Z,28.75
2018-07-14T19:48:41.190Z,29.17
2018-07-14T19:58:44.288Z,29.67
2018-07-14T20:08:47.457Z,31.49
2018-07-14T20:18:51.212Z,32.52
2018-07-14T20:28:54.308Z,33.40
2018-07-14T20:38:57.496Z,33.93
2018-07-14T20:49:00.576Z,32.77
2018-07-14T20:59:03.685Z,32.97
2018-07-14T21:09:07.229Z,33.94
2018-07-14T21:19:10.441Z,33.17
2018-07-14T21:29:13.630Z,33.38
2018-07-14T21:39:16.818Z,33.01
2018-07-14T21:49:19.782Z,34.77
2018-07-14T21:59:22.927Z,33.06
2018-07-14T22:09:26.540Z,33.08
2018-07-14T22:19:29.626Z,33.76
2018-07-14T22:29:32.980Z,33.53
2018-07-14T22:39:37.120Z,34.30
2018-07-14T22:49:40.086Z,33.25
2018-07-14T22:59:43.376Z,33.22
2018-07-14T23:09:46.664Z,33.40
2018-07-14T23:19:49.660Z,33.72
2018-07-14T23:29:52.930Z,33.82
2018-07-14T23:39:55.978Z,35.37
2018-07-14T23:49:59.111Z,34.78
